createdAt,value
2018-05-29T00:00:16.472Z,84.60
2018-05-29T00:00:47.946Z,84.60
2018-05-29T00:01:19.556Z,85.40
2018-05-29T00:01:51.722Z,85.40
2018-05-29T00:02:23.925Z,84.60
2018-05-29T00:02:55.322Z,84.60
2018-05-29T00:03:27.092Z,85.40
2018-05-29T00:03:59.463Z,84.70
2018-05-29T00:04:30.901Z,84.60
2018-05-29T00:05:03.493Z,84.70
2018-05-29T00:05:35.387Z,84.70
2018-05-29T00:06:06.826Z,84.60
2018-05-29T00:06:38.539Z,84.70
2018-05-29T00:07:11.173Z,84.60
2018-05-29T00:07:42.871Z,84.60
2018-05-29T00:08:14.271Z,84.60
2018-05-29T00:08:46.056Z,84.60
2018-05-29T00:09:17.847Z,84.70
2018-05-29T00:09:49.590Z,84.70
2018-05-29T00:10:21.631Z,84.60
2018-05-29T00:10:53.475Z,84.50
2018-05-29T00:11:25.427Z,84.50
2018-05-29T00:11:57.075Z,84.60
2018-05-29T00:12:28.465Z,84.60
2018-05-29T00:12:59.858Z,84.60
2018-05-29T00:13:31.258Z,84.60
2018-05-29T00:14:02.646Z,84.60
2018-05-29T00:14:34.891Z,84.70
2018-05-29T00:15:06.495Z,84.70
2018-05-29T00:15:38.354Z,84.60
2018-05-29T00:16:09.762Z,84.50
2018-05-29T00:16:41.511Z,84.60
2018-05-29T00:17:14.305Z,84.50
2018-05-29T00:17:45.922Z,84.60
2018-05-29T00:18:17.777Z,84.60
2018-05-29T00:18:49.853Z,84.50
2018-05-29T00:19:21.796Z,84.50
2018-05-29T00:19:53.367Z,84.50
2018-05-29T00:20:25.459Z,84.50
2018-05-29T00:20:57.085Z,84.60
2018-05-29T00:21:29.879Z,84.60
2018-05-29T00:22:01.849Z,84.70
2018-05-29T00:22:33.693Z,84.60
2018-05-29T00:23:05.367Z,84.60
2018-05-29T00:23:37.084Z,84.70
2018-05-29T00:24:08.685Z,84.60
2018-05-29T00:24:40.144Z,84.70
2018-05-29T00:25:12.211Z,84.70
2018-05-29T00:25:43.890Z,84.70
2018-05-29T00:26:15.566Z,84.50
2018-05-29T00:26:47.317Z,84.50
2018-05-29T00:27:19.086Z,84.60
2018-05-29T00:27:50.857Z,84.60
2018-05-29T00:28:22.502Z,84.60
2018-05-29T00:28:54.192Z,84.70
2018-05-29T00:29:26.679Z,84.50
2018-05-29T00:29:58.567Z,84.50
2018-05-29T00:30:30.973Z,85.20
2018-05-29T00:31:02.731Z,84.60
2018-05-29T00:31:34.370Z,84.60
2018-05-29T00:32:05.959Z,84.60
2018-05-29T00:32:37.695Z,84.50
2018-05-29T00:33:09.105Z,85.40
2018-05-29T00:33:40.535Z,84.60
2018-05-29T00:34:12.400Z,84.50
2018-05-29T00:34:44.152Z,84.50
2018-05-29T00:35:15.908Z,84.50
2018-05-29T00:35:47.729Z,84.50
2018-05-29T00:36:19.567Z,85.00
2018-05-29T00:36:51.617Z,84.50
2018-05-29T00:37:23.019Z,84.50
2018-05-29T00:37:54.799Z,84.50
2018-05-29T00:38:26.356Z,84.50
2018-05-29T00:38:58.175Z,84.50
2018-05-29T00:39:29.968Z,84.50
2018-05-29T00:40:01.554Z,84.50
2018-05-29T00:40:33.148Z,84.50
2018-05-29T00:41:04.557Z,84.50
2018-05-29T00:41:36.282Z,84.50
2018-05-29T00:42:07.677Z,84.50
2018-05-29T00:42:40.581Z,84.50
2018-05-29T00:43:12.554Z,84.50
2018-05-29T00:43:44.167Z,84.50
2018-05-29T00:44:15.815Z,84.50
2018-05-29T00:44:47.398Z,84.50
2018-05-29T00:45:19.221Z,84.50
2018-05-29T00:45:50.753Z,84.50
2018-05-29T00:46:22.155Z,84.50
2018-05-29T00:46:54.358Z,84.50
2018-05-29T00:47:25.763Z,84.50
2018-05-29T00:47:57.429Z,84.50
2018-05-29T00:48:28.825Z,84.50
2018-05-29T00:49:00.225Z,84.50
2018-05-29T00:49:32.492Z,84.40
2018-05-29T00:50:04.202Z,84.50
2018-05-29T00:50:35.598Z,84.50
2018-05-29T00:51:06.988Z,84.50
2018-05-29T00:51:38.608Z,84.50
2018-05-29T00:52:09.997Z,84.50
2018-05-29T00:52:42.158Z,84.50
2018-05-29T00:53:14.314Z,84.50
2018-05-29T00:53:46.470Z,84.50
2018-05-29T00:54:18.645Z,84.50
2018-05-29T00:54:50.045Z,84.50
2018-05-29T00:55:22.210Z,85.30
2018-05-29T00:55:54.435Z,84.40
2018-05-29T00:56:25.828Z,84.40
2018-05-29T00:56:57.228Z,84.40
2018-05-29T00:57:28.618Z,84.50
2018-05-29T00:58:00.016Z,85.20
2018-05-29T00:58:32.186Z,84.40
2018-05-29T00:59:03.598Z,84.40
2018-05-29T00:59:34.994Z,84.40
2018-05-29T01:00:06.398Z,84.50
2018-05-29T01:00:37.796Z,84.40
2018-05-29T01:01:09.251Z,85.20
2018-05-29T01:01:41.414Z,84.50
2018-05-29T01:02:13.579Z,84.40
2018-05-29T01:02:44.973Z,84.40
2018-05-29T01:03:16.367Z,84.40
2018-05-29T01:03:47.771Z,84.40
2018-05-29T01:04:19.941Z,84.50
2018-05-29T01:04:51.340Z,84.50
2018-05-29T01:05:22.756Z,84.40
2018-05-29T01:05:54.201Z,84.40
2018-05-29T01:06:25.604Z,84.40
2018-05-29T01:06:57.001Z,84.40
2018-05-29T01:07:29.174Z,84.40
2018-05-29T01:08:00.600Z,84.30
2018-05-29T01:08:32.767Z,84.40
2018-05-29T01:09:04.166Z,84.40
2018-05-29T01:09:35.563Z,84.40
2018-05-29T01:10:06.962Z,84.40
2018-05-29T01:10:39.123Z,84.40
2018-05-29T01:11:11.341Z,84.40
2018-05-29T01:11:42.745Z,84.40
2018-05-29T01:12:14.142Z,84.40
2018-05-29T01:12:46.304Z,84.40
2018-05-29T01:13:18.466Z,84.40
2018-05-29T01:13:49.857Z,84.40
2018-05-29T01:14:21.253Z,84.40
2018-05-29T01:14:52.639Z,84.30
2018-05-29T01:15:24.033Z,84.30
2018-05-29T01:15:55.500Z,84.40
2018-05-29T01:16:26.896Z,84.40
2018-05-29T01:16:58.322Z,84.40
2018-05-29T01:17:29.731Z,84.40
2018-05-29T01:18:01.132Z,84.40
2018-05-29T01:18:32.530Z,84.40
2018-05-29T01:19:03.928Z,84.30
2018-05-29T01:19:35.327Z,84.30
2018-05-29T01:20:06.726Z,84.40
2018-05-29T01:20:38.881Z,84.40
2018-05-29T01:21:11.099Z,84.40
2018-05-29T01:21:42.501Z,84.40
2018-05-29T01:22:13.894Z,84.30
2018-05-29T01:22:45.282Z,84.40
2018-05-29T01:23:16.686Z,84.30
2018-05-29T01:23:48.851Z,84.30
2018-05-29T01:24:20.245Z,84.30
2018-05-29T01:24:51.658Z,84.30
2018-05-29T01:25:23.059Z,84.30
2018-05-29T01:25:54.515Z,84.30
2018-05-29T01:26:25.923Z,84.40
2018-05-29T01:26:58.090Z,84.40
2018-05-29T01:27:29.491Z,84.30
2018-05-29T01:28:00.896Z,84.40
2018-05-29T01:28:32.298Z,84.30
2018-05-29T01:29:03.694Z,84.40
2018-05-29T01:29:35.090Z,84.40
2018-05-29T01:30:06.488Z,84.40
2018-05-29T01:30:38.659Z,84.50
2018-05-29T01:31:10.114Z,84.40
2018-05-29T01:31:41.523Z,84.40
2018-05-29T01:32:12.942Z,84.40
2018-05-29T01:32:44.338Z,84.30
2018-05-29T01:33:15.736Z,84.80
2018-05-29T01:33:47.139Z,84.30
2018-05-29T01:34:18.538Z,84.30
2018-05-29T01:34:49.936Z,84.30
2018-05-29T01:35:22.113Z,84.40
2018-05-29T01:35:53.567Z,84.20
2018-05-29T01:36:24.967Z,84.30
2018-05-29T01:36:56.358Z,84.30
2018-05-29T01:37:27.763Z,84.20
2018-05-29T01:37:59.164Z,84.30
2018-05-29T01:38:30.553Z,84.30
2018-05-29T01:39:01.947Z,84.30
2018-05-29T01:39:34.195Z,84.20
2018-05-29T01:40:05.587Z,84.20
2018-05-29T01:40:36.982Z,84.30
2018-05-29T01:41:09.206Z,84.20
2018-05-29T01:41:40.618Z,84.20
2018-05-29T01:42:12.021Z,84.20
2018-05-29T01:42:43.593Z,84.20
2018-05-29T01:43:15.231Z,84.20
2018-05-29T01:43:46.630Z,84.20
2018-05-29T01:44:18.022Z,84.30
2018-05-29T01:44:49.428Z,84.30
2018-05-29T01:45:20.836Z,84.20
2018-05-29T01:45:53.066Z,84.20
2018-05-29T01:46:24.464Z,84.20
2018-05-29T01:46:55.868Z,84.20
2018-05-29T01:47:28.030Z,84.20
2018-05-29T01:47:59.430Z,84.20
2018-05-29T01:48:30.827Z,84.20
2018-05-29T01:49:02.217Z,84.20
2018-05-29T01:49:33.610Z,84.20
2018-05-29T01:50:05.007Z,84.20
2018-05-29T01:50:37.167Z,84.20
2018-05-29T01:51:08.623Z,84.10
2018-05-29T01:51:40.017Z,84.20
2018-05-29T01:52:11.415Z,84.20
2018-05-29T01:52:42.835Z,84.20
2018-05-29T01:53:14.240Z,84.20
2018-05-29T01:53:46.413Z,84.20
2018-05-29T01:54:17.808Z,84.20
2018-05-29T01:54:49.214Z,84.20
2018-05-29T01:55:20.614Z,84.20
2018-05-29T01:55:52.016Z,84.20
2018-05-29T01:56:23.476Z,84.20
2018-05-29T01:56:55.640Z,84.20
2018-05-29T01:57:27.042Z,84.20
2018-05-29T01:57:58.449Z,84.20
2018-05-29T01:58:29.848Z,84.20
2018-05-29T01:59:01.243Z,84.20
2018-05-29T01:59:32.642Z,84.20
2018-05-29T02:00:04.034Z,84.10
2018-05-29T02:00:35.429Z,84.20
2018-05-29T02:01:06.883Z,84.60
2018-05-29T02:01:38.276Z,84.10
2018-05-29T02:02:09.668Z,84.10
2018-05-29T02:02:41.067Z,84.20
2018-05-29T02:03:12.467Z,84.20
2018-05-29T02:03:44.618Z,84.20
2018-05-29T02:04:16.813Z,84.20
2018-05-29T02:04:48.227Z,84.20
2018-05-29T02:05:19.614Z,84.10
2018-05-29T02:05:51.006Z,84.10
2018-05-29T02:06:22.453Z,84.10
2018-05-29T02:06:53.847Z,84.10
2018-05-29T02:07:25.246Z,84.20
2018-05-29T02:07:56.645Z,84.10
2018-05-29T02:08:28.036Z,84.20
2018-05-29T02:08:59.434Z,84.20
2018-05-29T02:09:30.834Z,84.20
2018-05-29T02:10:02.235Z,84.20
2018-05-29T02:10:33.634Z,84.20
2018-05-29T02:11:05.084Z,84.20
2018-05-29T02:11:36.507Z,84.10
2018-05-29T02:12:07.907Z,84.00
2018-05-29T02:12:39.306Z,84.10
2018-05-29T02:13:10.708Z,84.10
2018-05-29T02:13:42.118Z,84.10
2018-05-29T02:14:13.543Z,84.10
2018-05-29T02:14:44.933Z,84.10
2018-05-29T02:15:16.335Z,84.10
2018-05-29T02:15:48.489Z,84.40
2018-05-29T02:16:20.714Z,84.20
2018-05-29T02:16:52.143Z,84.10
2018-05-29T02:17:23.546Z,84.10
2018-05-29T02:17:54.944Z,84.10
2018-05-29T02:18:26.346Z,84.10
2018-05-29T02:18:57.741Z,84.10
2018-05-29T02:19:29.916Z,84.20
2018-05-29T02:20:01.313Z,84.10
2018-05-29T02:20:33.482Z,84.20
2018-05-29T02:21:05.698Z,84.10
2018-05-29T02:21:37.092Z,84.00
2018-05-29T02:22:08.487Z,84.10
2018-05-29T02:22:39.892Z,84.10
2018-05-29T02:23:11.291Z,84.10
2018-05-29T02:23:43.456Z,84.20
2018-05-29T02:24:14.846Z,84.10
2018-05-29T02:24:46.247Z,84.20
2018-05-29T02:25:17.638Z,84.10
2018-05-29T02:25:49.804Z,84.10
2018-05-29T02:26:21.260Z,84.10
2018-05-29T02:26:52.653Z,84.20
2018-05-29T02:27:24.038Z,84.20
2018-05-29T02:27:55.429Z,84.10
2018-05-29T02:28:26.832Z,84.10
2018-05-29T02:28:58.220Z,84.10
2018-05-29T02:29:30.385Z,84.20
2018-05-29T02:30:01.783Z,84.10
2018-05-29T02:30:33.186Z,84.10
2018-05-29T02:31:04.636Z,84.20
2018-05-29T02:31:36.063Z,84.10
2018-05-29T02:32:07.457Z,84.20
2018-05-29T02:32:39.616Z,84.20
2018-05-29T02:33:11.784Z,84.20
2018-05-29T02:33:43.184Z,84.20
2018-05-29T02:34:14.585Z,84.20
2018-05-29T02:34:45.986Z,84.10
2018-05-29T02:35:17.383Z,84.20
2018-05-29T02:35:48.786Z,84.10
2018-05-29T02:36:20.249Z,84.10
2018-05-29T02:36:51.658Z,84.20
2018-05-29T02:37:23.068Z,84.20
2018-05-29T02:37:54.468Z,84.10
2018-05-29T02:38:25.871Z,84.20
2018-05-29T02:38:57.302Z,84.10
2018-05-29T02:39:28.694Z,84.10
2018-05-29T02:40:00.087Z,84.10
2018-05-29T02:40:31.483Z,84.10
2018-05-29T02:41:02.875Z,84.10
2018-05-29T02:41:34.329Z,84.10
2018-05-29T02:42:05.727Z,84.20
2018-05-29T02:42:37.125Z,84.20
2018-05-29T02:43:09.285Z,84.10
2018-05-29T02:43:40.714Z,84.10
2018-05-29T02:44:12.870Z,84.10
2018-05-29T02:44:45.036Z,84.10
2018-05-29T02:45:16.433Z,84.80
2018-05-29T02:45:47.830Z,84.00
2018-05-29T02:46:19.288Z,84.80
2018-05-29T02:46:50.702Z,84.10
2018-05-29T02:47:22.095Z,84.10
2018-05-29T02:47:53.492Z,84.10
2018-05-29T02:48:24.894Z,84.00
2018-05-29T02:48:56.304Z,84.10
2018-05-29T02:49:27.701Z,84.10
2018-05-29T02:49:59.102Z,84.70
2018-05-29T02:50:30.508Z,84.00
2018-05-29T02:51:01.905Z,84.10
2018-05-29T02:51:33.359Z,84.00
2018-05-29T02:52:04.758Z,84.10
2018-05-29T02:52:36.149Z,84.00
2018-05-29T02:53:07.551Z,84.00
2018-05-29T02:53:38.944Z,84.10
2018-05-29T02:54:11.123Z,84.10
2018-05-29T02:54:42.529Z,84.00
2018-05-29T02:55:14.685Z,84.10
2018-05-29T02:55:46.871Z,84.00
2018-05-29T02:56:18.327Z,84.00
2018-05-29T02:56:49.778Z,84.00
2018-05-29T02:57:21.176Z,84.00
2018-05-29T02:57:52.569Z,84.00
2018-05-29T02:58:23.969Z,84.10
2018-05-29T02:58:55.372Z,84.00
2018-05-29T02:59:27.543Z,84.10
2018-05-29T02:59:58.938Z,84.10
2018-05-29T03:00:30.335Z,84.10
2018-05-29T03:01:01.742Z,84.10
2018-05-29T03:01:33.184Z,84.10
2018-05-29T03:02:04.580Z,84.10
2018-05-29T03:02:35.976Z,84.20
2018-05-29T03:03:07.371Z,84.10
2018-05-29T03:03:39.541Z,84.10
2018-05-29T03:04:10.940Z,84.00
2018-05-29T03:04:42.342Z,84.10
2018-05-29T03:05:13.724Z,84.20
2018-05-29T03:05:45.116Z,84.10
2018-05-29T03:06:16.568Z,84.10
2018-05-29T03:06:47.982Z,84.10
2018-05-29T03:07:19.381Z,84.10
2018-05-29T03:07:51.546Z,84.10
2018-05-29T03:08:23.717Z,84.10
2018-05-29T03:08:55.111Z,84.00
2018-05-29T03:09:26.502Z,84.00
2018-05-29T03:09:57.897Z,84.00
2018-05-29T03:10:30.068Z,84.30
2018-05-29T03:11:01.461Z,84.10
2018-05-29T03:11:32.865Z,84.00
2018-05-29T03:12:04.271Z,84.10
2018-05-29T03:12:36.430Z,84.10
2018-05-29T03:13:08.594Z,84.20
2018-05-29T03:13:39.990Z,84.10
2018-05-29T03:14:11.406Z,84.10
2018-05-29T03:14:42.869Z,84.00
2018-05-29T03:15:14.268Z,84.10
2018-05-29T03:15:45.669Z,84.10
2018-05-29T03:16:17.883Z,84.10
2018-05-29T03:16:49.278Z,84.00
2018-05-29T03:17:20.694Z,84.10
2018-05-29T03:17:52.863Z,84.10
2018-05-29T03:18:24.262Z,84.10
2018-05-29T03:18:55.658Z,84.10
2018-05-29T03:19:27.053Z,84.10
2018-05-29T03:19:59.211Z,84.10
2018-05-29T03:20:31.381Z,84.00
2018-05-29T03:21:02.777Z,84.00
2018-05-29T03:21:34.175Z,84.00
2018-05-29T03:22:05.580Z,84.00
2018-05-29T03:22:37.747Z,84.00
2018-05-29T03:23:09.142Z,84.10
2018-05-29T03:23:40.544Z,84.00
2018-05-29T03:24:11.951Z,84.00
2018-05-29T03:24:43.339Z,84.00
2018-05-29T03:25:14.730Z,84.00
2018-05-29T03:25:46.131Z,84.00
2018-05-29T03:26:17.588Z,84.00
2018-05-29T03:26:49.746Z,84.00
2018-05-29T03:27:21.144Z,84.00
2018-05-29T03:27:52.543Z,84.00
2018-05-29T03:28:23.947Z,84.00
2018-05-29T03:28:56.111Z,84.00
2018-05-29T03:29:27.518Z,84.00
2018-05-29T03:29:58.910Z,83.90
2018-05-29T03:30:30.317Z,84.00
2018-05-29T03:31:01.710Z,84.00
2018-05-29T03:31:33.170Z,84.10
2018-05-29T03:32:04.567Z,84.10
2018-05-29T03:32:35.961Z,84.30
2018-05-29T03:33:08.132Z,84.20
2018-05-29T03:33:39.526Z,84.10
2018-05-29T03:34:10.931Z,84.10
2018-05-29T03:34:42.331Z,84.10
2018-05-29T03:35:13.731Z,84.10
2018-05-29T03:35:45.143Z,84.10
2018-05-29T03:36:16.534Z,84.00
2018-05-29T03:36:48.751Z,84.00
2018-05-29T03:37:20.157Z,84.00
2018-05-29T03:37:51.896Z,84.00
2018-05-29T03:38:23.290Z,84.00
2018-05-29T03:38:54.683Z,84.00
2018-05-29T03:39:26.084Z,84.10
2018-05-29T03:39:57.488Z,84.00
2018-05-29T03:40:28.897Z,84.00
2018-05-29T03:41:00.307Z,84.10
2018-05-29T03:41:31.754Z,84.00
2018-05-29T03:42:03.157Z,83.90
2018-05-29T03:42:35.327Z,84.00
2018-05-29T03:43:06.730Z,84.00
2018-05-29T03:43:38.132Z,84.00
2018-05-29T03:44:09.533Z,83.90
2018-05-29T03:44:40.954Z,84.00
2018-05-29T03:45:13.122Z,84.00
2018-05-29T03:45:45.291Z,84.00
2018-05-29T03:46:16.700Z,84.00
2018-05-29T03:46:48.917Z,84.00
2018-05-29T03:47:20.317Z,84.00
2018-05-29T03:47:51.712Z,84.00
2018-05-29T03:48:23.101Z,84.00
2018-05-29T03:48:54.488Z,84.00
2018-05-29T03:49:25.874Z,84.00
2018-05-29T03:49:57.270Z,84.00
2018-05-29T03:50:29.437Z,84.00
2018-05-29T03:51:00.838Z,84.00
2018-05-29T03:51:32.288Z,84.00
2018-05-29T03:52:03.687Z,84.00
2018-05-29T03:52:35.084Z,84.00
2018-05-29T03:53:07.255Z,83.90
2018-05-29T03:53:38.647Z,83.90
2018-05-29T03:54:10.046Z,83.90
2018-05-29T03:54:45.521Z,84.00
2018-05-29T03:55:16.911Z,84.00
2018-05-29T03:55:48.307Z,84.00
2018-05-29T03:56:20.462Z,84.00
2018-05-29T03:56:52.676Z,84.00
2018-05-29T03:57:24.064Z,84.00
2018-05-29T03:57:55.471Z,83.90
2018-05-29T03:58:26.861Z,83.80
2018-05-29T03:58:58.254Z,83.90
2018-05-29T03:59:29.637Z,83.90
2018-05-29T04:00:01.035Z,83.90
2018-05-29T04:00:32.429Z,83.90
2018-05-29T04:01:03.822Z,83.90
2018-05-29T04:01:35.276Z,83.90
2018-05-29T04:02:06.669Z,83.80
2018-05-29T04:02:38.068Z,83.80
2018-05-29T04:03:09.465Z,83.80
2018-05-29T04:03:40.868Z,83.90
2018-05-29T04:04:12.262Z,83.90
2018-05-29T04:04:43.658Z,83.90
2018-05-29T04:05:15.822Z,84.00
2018-05-29T04:05:47.987Z,84.00
2018-05-29T04:06:19.377Z,84.00
2018-05-29T04:06:51.036Z,84.00
2018-05-29T04:07:22.421Z,83.90
2018-05-29T04:07:53.812Z,84.00
2018-05-29T04:08:25.196Z,84.00
2018-05-29T04:08:56.590Z,83.90
2018-05-29T04:09:28.748Z,84.00
2018-05-29T04:10:00.962Z,83.90
2018-05-29T04:10:32.365Z,83.80
2018-05-29T04:11:03.770Z,83.80
2018-05-29T04:11:35.998Z,84.70
2018-05-29T04:12:07.394Z,84.00
2018-05-29T04:12:38.781Z,83.80
2018-05-29T04:13:10.174Z,84.00
2018-05-29T04:13:41.570Z,83.90
2018-05-29T04:14:13.735Z,84.70
2018-05-29T04:14:45.898Z,84.00
2018-05-29T04:15:18.054Z,83.90
2018-05-29T04:15:49.446Z,83.90
2018-05-29T04:16:20.884Z,83.80
2018-05-29T04:16:52.333Z,83.80
2018-05-29T04:17:23.722Z,83.80
2018-05-29T04:17:55.114Z,83.90
2018-05-29T04:18:26.512Z,84.10
2018-05-29T04:18:57.901Z,83.90
2018-05-29T04:19:30.064Z,83.80
2018-05-29T04:20:01.449Z,83.80
2018-05-29T04:21:10.111Z,83.80
2018-05-29T04:21:41.557Z,83.70
2018-05-29T04:22:12.942Z,83.80
2018-05-29T04:22:44.332Z,83.80
2018-05-29T04:23:15.739Z,83.80
2018-05-29T04:23:47.901Z,83.90
2018-05-29T04:24:20.070Z,83.90
2018-05-29T04:24:51.470Z,83.90
2018-05-29T04:25:22.860Z,83.80
2018-05-29T04:25:54.253Z,83.80
2018-05-29T04:26:26.428Z,83.90
2018-05-29T04:26:57.877Z,83.80
2018-05-29T04:27:29.280Z,83.80
2018-05-29T04:28:00.682Z,84.00
2018-05-29T04:28:32.069Z,84.70
2018-05-29T04:29:04.226Z,83.90
2018-05-29T04:29:36.390Z,83.80
2018-05-29T04:30:07.787Z,83.80
2018-05-29T04:30:39.174Z,83.90
2018-05-29T04:31:10.562Z,83.80
2018-05-29T04:31:42.006Z,83.90
2018-05-29T04:32:13.401Z,83.90
2018-05-29T04:32:44.793Z,84.50
2018-05-29T04:33:16.955Z,83.90
2018-05-29T04:33:48.351Z,83.80
2018-05-29T04:34:19.741Z,84.00
2018-05-29T04:34:51.157Z,84.00
2018-05-29T04:35:23.319Z,84.00
2018-05-29T04:35:55.479Z,84.00
2018-05-29T04:36:26.871Z,84.00
2018-05-29T04:36:58.312Z,83.90
2018-05-29T04:37:29.727Z,83.90
2018-05-29T04:38:01.123Z,83.90
2018-05-29T04:38:32.517Z,83.90
2018-05-29T04:39:03.901Z,83.80
2018-05-29T04:39:35.296Z,83.70
2018-05-29T04:40:06.696Z,83.80
2018-05-29T04:40:38.088Z,83.90
2018-05-29T04:41:10.255Z,83.80
2018-05-29T04:41:42.466Z,83.80
2018-05-29T04:42:13.888Z,83.80
2018-05-29T04:42:46.048Z,83.90
2018-05-29T04:43:17.441Z,83.90
2018-05-29T04:43:48.838Z,84.00
2018-05-29T04:44:20.244Z,84.00
2018-05-29T04:44:51.628Z,83.80
2018-05-29T04:45:23.786Z,83.90
2018-05-29T04:45:55.954Z,84.70
2018-05-29T04:46:28.109Z,83.80
2018-05-29T04:47:00.333Z,83.80
2018-05-29T04:47:31.761Z,83.80
2018-05-29T04:48:03.168Z,83.90
2018-05-29T04:48:34.559Z,83.90
2018-05-29T04:49:06.723Z,83.80
2018-05-29T04:49:38.928Z,83.90
2018-05-29T04:50:10.338Z,83.80
2018-05-29T04:50:41.726Z,83.80
2018-05-29T04:51:13.123Z,83.80
2018-05-29T04:51:44.581Z,83.90
2018-05-29T04:52:15.977Z,83.80
2018-05-29T04:52:47.373Z,83.80
2018-05-29T04:53:18.766Z,83.90
2018-05-29T04:53:50.161Z,83.90
2018-05-29T04:54:22.320Z,84.80
2018-05-29T04:54:54.483Z,83.80
2018-05-29T04:55:26.633Z,83.80
2018-05-29T04:55:58.798Z,83.90
2018-05-29T04:56:30.188Z,83.80
2018-05-29T04:57:01.642Z,84.00
2018-05-29T04:57:33.033Z,84.00
2018-05-29T04:58:04.438Z,83.80
2018-05-29T04:58:35.825Z,83.90
2018-05-29T04:59:07.222Z,83.90
2018-05-29T04:59:38.608Z,84.00
2018-05-29T05:00:10.003Z,84.00
2018-05-29T05:00:41.391Z,84.00
2018-05-29T05:01:12.783Z,84.10
2018-05-29T05:01:44.231Z,84.00
2018-05-29T05:02:15.618Z,84.00
2018-05-29T05:02:47.011Z,84.10
2018-05-29T05:03:18.401Z,84.00
2018-05-29T05:03:50.553Z,84.10
2018-05-29T05:04:22.718Z,84.00
2018-05-29T05:04:54.175Z,84.00
2018-05-29T05:05:25.573Z,84.00
2018-05-29T05:05:57.721Z,84.10
2018-05-29T05:06:29.111Z,84.10
2018-05-29T05:07:00.558Z,84.10
2018-05-29T05:07:31.943Z,84.90
2018-05-29T05:08:04.099Z,84.10
2018-05-29T05:08:36.249Z,84.00
2018-05-29T05:09:08.397Z,84.10
2018-05-29T05:09:40.549Z,84.90
2018-05-29T05:10:12.710Z,84.10
2018-05-29T05:10:44.866Z,84.00
2018-05-29T05:11:17.027Z,84.00
2018-05-29T05:11:49.241Z,84.00
2018-05-29T05:12:20.636Z,84.00
2018-05-29T05:12:52.030Z,84.00
2018-05-29T05:13:23.430Z,84.00
2018-05-29T05:13:54.833Z,84.10
2018-05-29T05:14:26.228Z,84.10
2018-05-29T05:14:57.614Z,84.10
2018-05-29T05:15:29.003Z,84.10
2018-05-29T05:16:00.403Z,84.10
2018-05-29T05:16:31.817Z,84.10
2018-05-29T05:17:03.263Z,84.10
2018-05-29T05:17:34.663Z,84.10
2018-05-29T05:18:06.063Z,84.10
2018-05-29T05:18:37.462Z,84.50
2018-05-29T05:19:08.902Z,84.10
2018-05-29T05:19:40.289Z,84.10
2018-05-29T05:20:11.689Z,84.10
2018-05-29T05:20:43.123Z,84.10
2018-05-29T05:21:14.519Z,84.10
2018-05-29T05:21:45.971Z,84.10
2018-05-29T05:22:18.128Z,84.20
2018-05-29T05:22:50.283Z,84.10
2018-05-29T05:23:21.672Z,84.10
2018-05-29T05:23:53.066Z,84.10
2018-05-29T05:24:24.489Z,84.10
2018-05-29T05:24:56.647Z,84.10
2018-05-29T05:25:28.808Z,84.10
2018-05-29T05:26:00.287Z,84.10
2018-05-29T05:26:31.676Z,84.10
2018-05-29T05:27:03.887Z,84.00
2018-05-29T05:27:35.279Z,84.00
2018-05-29T05:28:06.683Z,84.10
2018-05-29T05:28:38.073Z,84.10
2018-05-29T05:29:09.473Z,84.00
2018-05-29T05:29:40.861Z,84.00
2018-05-29T05:30:12.253Z,84.00
2018-05-29T05:30:43.650Z,84.10
2018-05-29T05:31:15.059Z,84.10
2018-05-29T05:31:46.511Z,84.10
2018-05-29T05:32:17.895Z,84.10
2018-05-29T05:32:50.048Z,84.10
2018-05-29T05:33:21.430Z,84.10
2018-05-29T05:33:53.588Z,83.80
2018-05-29T05:34:24.994Z,84.10
2018-05-29T05:34:56.409Z,84.20
2018-05-29T05:35:28.563Z,84.10
2018-05-29T05:36:00.722Z,84.20
2018-05-29T05:36:32.880Z,84.20
2018-05-29T05:37:05.035Z,84.10
2018-05-29T05:37:36.425Z,84.10
2018-05-29T05:38:07.810Z,84.10
2018-05-29T05:38:39.201Z,84.10
2018-05-29T05:39:10.598Z,84.10
2018-05-29T05:39:41.995Z,84.10
2018-05-29T05:40:13.385Z,84.10
2018-05-29T05:40:44.771Z,84.20
2018-05-29T05:41:16.930Z,84.10
2018-05-29T05:41:49.155Z,84.20
2018-05-29T05:42:20.542Z,84.10
2018-05-29T05:42:51.926Z,84.20
2018-05-29T05:43:23.313Z,84.20
2018-05-29T05:43:54.697Z,84.20
2018-05-29T05:44:26.098Z,84.20
2018-05-29T05:44:57.488Z,84.20
2018-05-29T05:45:28.873Z,84.20
2018-05-29T05:46:00.369Z,84.20
2018-05-29T05:46:32.527Z,85.10
2018-05-29T05:47:04.688Z,85.00
2018-05-29T05:47:36.852Z,84.20
2018-05-29T05:48:08.244Z,84.20
2018-05-29T05:48:39.637Z,84.20
2018-05-29T05:49:11.077Z,84.20
2018-05-29T05:49:42.490Z,84.10
2018-05-29T05:50:14.681Z,84.10
2018-05-29T05:50:46.077Z,84.10
2018-05-29T05:51:18.263Z,84.20
2018-05-29T05:51:49.658Z,84.20
2018-05-29T05:52:21.067Z,84.20
2018-05-29T05:52:52.461Z,84.20
2018-05-29T05:53:23.866Z,84.20
2018-05-29T05:53:55.254Z,84.20
2018-05-29T05:54:26.645Z,84.20
2018-05-29T05:54:58.807Z,84.50
2018-05-29T05:55:30.978Z,84.20
2018-05-29T05:56:02.374Z,84.20
2018-05-29T05:56:33.769Z,84.20
2018-05-29T05:57:05.230Z,84.10
2018-05-29T05:57:36.627Z,84.20
2018-05-29T05:58:08.023Z,84.10
2018-05-29T05:58:39.414Z,84.10
2018-05-29T05:59:10.815Z,84.10
2018-05-29T05:59:42.976Z,84.20
2018-05-29T06:00:14.368Z,84.10
2018-05-29T06:00:45.764Z,84.20
2018-05-29T06:01:17.156Z,84.30
2018-05-29T06:01:48.555Z,84.20
2018-05-29T06:02:19.997Z,84.20
2018-05-29T06:02:51.395Z,84.20
2018-05-29T06:03:22.800Z,84.20
2018-05-29T06:03:54.185Z,84.10
2018-05-29T06:04:25.622Z,84.10
2018-05-29T06:04:57.030Z,84.10
2018-05-29T06:05:29.191Z,84.20
2018-05-29T06:06:01.353Z,84.20
2018-05-29T06:06:33.506Z,84.20
2018-05-29T06:07:05.725Z,84.10
2018-05-29T06:07:37.114Z,84.10
2018-05-29T06:08:08.512Z,84.20
2018-05-29T06:08:39.900Z,84.10
2018-05-29T06:09:11.292Z,84.10
2018-05-29T06:09:43.451Z,84.20
2018-05-29T06:10:14.839Z,84.20
2018-05-29T06:10:46.236Z,84.10
2018-05-29T06:11:18.401Z,84.10
2018-05-29T06:11:49.836Z,84.10
2018-05-29T06:12:21.291Z,84.10
2018-05-29T06:12:52.687Z,84.20
2018-05-29T06:13:24.849Z,84.10
2018-05-29T06:13:57.011Z,84.20
2018-05-29T06:14:29.175Z,84.10
2018-05-29T06:15:00.575Z,84.10
2018-05-29T06:15:32.002Z,84.10
2018-05-29T06:16:03.434Z,84.10
2018-05-29T06:16:34.814Z,84.10
2018-05-29T06:17:06.252Z,84.10
2018-05-29T06:17:37.638Z,84.10
2018-05-29T06:18:09.021Z,84.20
2018-05-29T06:18:41.176Z,84.10
2018-05-29T06:19:13.331Z,84.10
2018-05-29T06:19:44.818Z,84.00
2018-05-29T06:20:16.209Z,84.10
2018-05-29T06:20:47.597Z,84.10
2018-05-29T06:21:18.985Z,84.10
2018-05-29T06:21:50.376Z,84.10
2018-05-29T06:22:21.841Z,84.10
2018-05-29T06:22:54.664Z,84.10
2018-05-29T06:23:26.364Z,84.10
2018-05-29T06:23:58.529Z,84.10
2018-05-29T06:24:29.921Z,84.00
2018-05-29T06:25:01.322Z,84.10
2018-05-29T06:25:32.721Z,84.10
2018-05-29T06:26:04.885Z,84.10
2018-05-29T06:26:36.279Z,84.10
2018-05-29T06:27:07.733Z,84.00
2018-05-29T06:27:39.118Z,84.00
2018-05-29T06:28:10.510Z,84.00
2018-05-29T06:28:42.667Z,84.10
2018-05-29T06:29:14.828Z,83.30
2018-05-29T06:29:46.991Z,84.00
2018-05-29T06:30:18.405Z,84.00
2018-05-29T06:30:49.800Z,84.00
2018-05-29T06:31:21.197Z,83.70
2018-05-29T06:31:53.359Z,84.00
2018-05-29T06:32:24.808Z,84.00
2018-05-29T06:32:56.206Z,84.00
2018-05-29T06:33:27.596Z,84.00
2018-05-29T06:33:58.981Z,84.00
2018-05-29T06:34:31.134Z,84.00
2018-05-29T06:35:02.531Z,84.00
2018-05-29T06:35:33.934Z,84.00
2018-05-29T06:36:05.370Z,84.00
2018-05-29T06:36:36.760Z,84.00
2018-05-29T06:37:08.246Z,84.00
2018-05-29T06:37:39.642Z,84.00
2018-05-29T06:38:11.077Z,84.00
2018-05-29T06:38:42.497Z,83.90
2018-05-29T06:39:14.698Z,84.00
2018-05-29T06:39:46.868Z,84.00
2018-05-29T06:40:18.361Z,84.00
2018-05-29T06:40:49.757Z,84.00
2018-05-29T06:41:21.150Z,83.90
2018-05-29T06:41:52.569Z,83.90
2018-05-29T06:42:24.044Z,84.00
2018-05-29T06:42:56.219Z,84.00
2018-05-29T06:43:27.612Z,84.00
2018-05-29T06:43:59.000Z,84.00
2018-05-29T06:44:30.393Z,84.00
2018-05-29T06:45:02.635Z,84.00
2018-05-29T06:45:34.007Z,84.00
2018-05-29T06:46:05.420Z,84.00
2018-05-29T06:46:37.575Z,84.10
2018-05-29T06:47:09.784Z,84.00
2018-05-29T06:47:41.185Z,84.00